createdAt,value
2017-11-03T00:00:08.609Z,97560.73
2017-11-03T00:00:46.034Z,97554.36
2017-11-03T00:01:23.427Z,97553.95
2017-11-03T00:02:00.725Z,97558.67
2017-11-03T00:02:38.149Z,97556.15
2017-11-03T00:03:15.447Z,97554.88
2017-11-03T00:03:52.821Z,97558.28
2017-11-03T00:04:30.148Z,97557.06
2017-11-03T00:05:07.719Z,97552.83
2017-11-03T00:05:44.969Z,97560.54
2017-11-03T00:06:22.345Z,97562.25
2017-11-03T00:06:59.585Z,97562.26
2017-11-03T00:07:36.819Z,97561.81
2017-11-03T00:08:14.209Z,97561.83
2017-11-03T00:08:51.779Z,97566.09
2017-11-03T00:09:29.258Z,97566.14
2017-11-03T00:10:06.580Z,97564.04
2017-11-03T00:10:44.176Z,97565.72
2017-11-03T00:11:21.398Z,97563.19
2017-11-03T00:11:58.864Z,97573.88
2017-11-03T00:12:36.344Z,97569.58
2017-11-03T00:13:13.678Z,97567.07
2017-11-03T00:13:50.890Z,97570.91
2017-11-03T00:14:28.439Z,97567.58
2017-11-03T00:15:05.784Z,97565.03
2017-11-03T00:15:43.385Z,97573.11
2017-11-03T00:16:20.658Z,97568.88
2017-11-03T00:16:58.078Z,97569.28
2017-11-03T00:17:35.754Z,97564.59
2017-11-03T00:18:12.977Z,97564.17
2017-11-03T00:18:50.377Z,97570.55
2017-11-03T00:19:27.672Z,97562.47
2017-11-03T00:20:05.171Z,97567.14
2017-11-03T00:20:42.646Z,97567.52
2017-11-03T00:21:20.125Z,97567.50
2017-11-03T00:21:57.542Z,97570.00
2017-11-03T00:22:34.793Z,97563.20
2017-11-03T00:23:12.121Z,97562.31
2017-11-03T00:23:49.329Z,97567.34
2017-11-03T00:24:26.561Z,97568.55
2017-11-03T00:25:03.837Z,97573.58
2017-11-03T00:25:41.210Z,97574.84
2017-11-03T00:26:18.584Z,97574.37
2017-11-03T00:26:55.953Z,97568.77
2017-11-03T00:27:33.202Z,97570.01
2017-11-03T00:28:10.750Z,97575.46
2017-11-03T00:28:47.997Z,97574.14
2017-11-03T00:29:25.245Z,97578.32
2017-11-03T00:30:02.678Z,97580.48
2017-11-03T00:30:40.156Z,97577.38
2017-11-03T00:31:17.864Z,97573.95
2017-11-03T00:31:55.121Z,97578.58
2017-11-03T00:32:32.794Z,97578.08
2017-11-03T00:33:10.043Z,97579.75
2017-11-03T00:33:47.262Z,97580.90
2017-11-03T00:34:24.679Z,97579.19
2017-11-03T00:35:02.209Z,97585.09
2017-11-03T00:35:39.601Z,97583.81
2017-11-03T00:36:16.801Z,97583.82
2017-11-03T00:36:54.281Z,97580.41
2017-11-03T00:37:31.749Z,97583.81
2017-11-03T00:38:08.993Z,97587.16
2017-11-03T00:38:46.418Z,97587.13
2017-11-03T00:39:23.640Z,97585.78
2017-11-03T00:40:00.919Z,97588.36
2017-11-03T00:40:38.287Z,97584.53
2017-11-03T00:41:15.662Z,97582.86
2017-11-03T00:41:52.909Z,97585.85
2017-11-03T00:42:30.409Z,97587.59
2017-11-03T00:43:07.888Z,97584.66
2017-11-03T00:43:45.367Z,97594.80
2017-11-03T00:44:22.881Z,97589.25
2017-11-03T00:45:00.300Z,97589.64
2017-11-03T00:45:37.626Z,97596.02
2017-11-03T00:46:15.170Z,97591.33
2017-11-03T00:46:52.425Z,97593.45
2017-11-03T00:47:29.665Z,97597.27
2017-11-03T00:48:07.161Z,97592.16
2017-11-03T00:48:44.445Z,97599.81
2017-11-03T00:49:21.761Z,97604.02
2017-11-03T00:49:59.057Z,97593.79
2017-11-03T00:50:36.461Z,97601.52
2017-11-03T00:51:13.684Z,97598.98
2017-11-03T00:51:50.906Z,97601.61
2017-11-03T00:52:28.528Z,97601.17
2017-11-03T00:53:05.829Z,97601.26
2017-11-03T00:53:43.183Z,97602.95
2017-11-03T00:54:20.451Z,97599.13
2017-11-03T00:54:57.844Z,97600.00
2017-11-03T00:55:35.065Z,97597.91
2017-11-03T00:56:12.365Z,97595.77
2017-11-03T00:56:49.815Z,97600.09
2017-11-03T00:57:27.065Z,97597.42
2017-11-03T00:58:04.314Z,97600.28
2017-11-03T00:58:41.609Z,97592.25
2017-11-03T00:59:19.157Z,97594.31
2017-11-03T00:59:56.698Z,97596.09
2017-11-03T01:00:34.221Z,97599.56
2017-11-03T01:01:11.548Z,97597.89
2017-11-03T01:01:48.800Z,97594.98
2017-11-03T01:02:26.174Z,97595.10
2017-11-03T01:03:03.394Z,97600.77
2017-11-03T01:03:40.749Z,97599.50
2017-11-03T01:04:18.118Z,97595.34
2017-11-03T01:04:55.365Z,97594.13
2017-11-03T01:05:32.822Z,97594.14
2017-11-03T01:06:10.300Z,97590.82
2017-11-03T01:06:47.633Z,97602.38
2017-11-03T01:07:25.081Z,97598.59
2017-11-03T01:08:02.606Z,97590.94
2017-11-03T01:08:39.786Z,97593.52
2017-11-03T01:09:17.388Z,97593.52
2017-11-03T01:09:54.801Z,97596.55
2017-11-03T01:10:32.098Z,97597.83
2017-11-03T01:11:09.545Z,97604.22
2017-11-03T01:11:46.817Z,97606.42
2017-11-03T01:12:24.220Z,97603.08
2017-11-03T01:13:01.645Z,97603.94
2017-11-03T01:13:39.041Z,97595.85
2017-11-03T01:14:16.337Z,97603.51
2017-11-03T01:14:53.774Z,97607.77
2017-11-03T01:15:31.161Z,97606.91
2017-11-03T01:16:08.485Z,97608.26
2017-11-03T01:16:46.206Z,97607.83
2017-11-03T01:17:23.654Z,97606.56
2017-11-03T01:18:00.953Z,97604.88
2017-11-03T01:18:38.358Z,97607.84
2017-11-03T01:19:15.673Z,97601.91
2017-11-03T01:19:53.021Z,97607.84
2017-11-03T01:20:30.293Z,97615.50
2017-11-03T01:21:07.753Z,97609.13
2017-11-03T01:21:45.427Z,97612.59
2017-11-03T01:22:22.817Z,97612.61
2017-11-03T01:23:00.074Z,97614.28
2017-11-03T01:23:37.555Z,97605.80
2017-11-03T01:24:14.985Z,97610.55
2017-11-03T01:24:52.381Z,97607.58
2017-11-03T01:25:29.686Z,97613.47
2017-11-03T01:26:07.163Z,97613.88
2017-11-03T01:26:44.642Z,97613.89
2017-11-03T01:27:21.979Z,97624.58
2017-11-03T01:27:59.227Z,97616.92
2017-11-03T01:28:36.722Z,97613.89
2017-11-03T01:29:13.969Z,97618.56
2017-11-03T01:29:51.421Z,97616.93
2017-11-03T01:30:28.813Z,97618.62
2017-11-03T01:31:06.061Z,97622.87
2017-11-03T01:31:43.478Z,97623.32
2017-11-03T01:32:20.923Z,97618.27
2017-11-03T01:32:58.434Z,97614.87
2017-11-03T01:33:35.705Z,97618.28
2017-11-03T01:34:13.354Z,97620.84
2017-11-03T01:34:50.576Z,97624.24
2017-11-03T01:35:28.116Z,97624.72
2017-11-03T01:36:05.397Z,97619.19
2017-11-03T01:36:43.047Z,97626.42
2017-11-03T01:37:20.390Z,97619.20
2017-11-03T01:37:58.019Z,97621.33
2017-11-03T01:38:35.265Z,97626.92
2017-11-03T01:39:12.618Z,97626.94
2017-11-03T01:39:49.852Z,97621.82
2017-11-03T01:40:27.260Z,97619.70
2017-11-03T01:41:04.509Z,97629.07
2017-11-03T01:41:41.985Z,97627.84
2017-11-03T01:42:19.465Z,97627.41
2017-11-03T01:42:56.954Z,97630.41
2017-11-03T01:43:34.249Z,97629.13
2017-11-03T01:44:11.601Z,97626.16
2017-11-03T01:44:48.892Z,97630.47
2017-11-03T01:45:26.269Z,97638.55
2017-11-03T01:46:03.537Z,97627.91
2017-11-03T01:46:40.946Z,97630.90
2017-11-03T01:47:18.349Z,97629.19
2017-11-03T01:47:55.590Z,97632.97
2017-11-03T01:48:32.937Z,97636.37
2017-11-03T01:49:10.288Z,97637.64
2017-11-03T01:49:49.346Z,97639.34
2017-11-03T01:50:26.610Z,97636.37
2017-11-03T01:51:04.006Z,97639.35
2017-11-03T01:51:41.276Z,97638.05
2017-11-03T01:52:18.813Z,97639.70
2017-11-03T01:52:56.598Z,97639.67
2017-11-03T01:53:34.047Z,97638.42
2017-11-03T01:54:11.405Z,97641.73
2017-11-03T01:54:48.993Z,97636.20
2017-11-03T01:55:26.222Z,97634.14
2017-11-03T01:56:03.489Z,97636.64
2017-11-03T01:56:40.784Z,97637.97
2017-11-03T01:57:18.161Z,97634.08
2017-11-03T01:57:55.380Z,97634.78
2017-11-03T01:58:32.806Z,97637.26
2017-11-03T01:59:10.158Z,97636.76
2017-11-03T01:59:47.558Z,97634.14
2017-11-03T02:00:24.753Z,97635.77
2017-11-03T02:01:02.275Z,97637.90
2017-11-03T02:01:39.525Z,97633.20
2017-11-03T02:02:16.938Z,97628.05
2017-11-03T02:02:54.140Z,97636.11
2017-11-03T02:03:31.518Z,97637.33
2017-11-03T02:04:08.812Z,97633.85
2017-11-03T02:04:46.237Z,97641.59
2017-11-03T02:05:23.911Z,97630.53
2017-11-03T02:06:01.198Z,97631.81
2017-11-03T02:06:38.614Z,97637.80
2017-11-03T02:07:15.881Z,97638.24
2017-11-03T02:10:37.650Z,97645.63
2017-11-03T02:11:15.162Z,97644.39
2017-11-03T02:11:52.636Z,97646.05
2017-11-03T02:12:29.970Z,97642.20
2017-11-03T02:13:07.212Z,97639.95
2017-11-03T02:13:44.765Z,97636.54
2017-11-03T02:14:22.244Z,97643.33
2017-11-03T02:14:59.634Z,97643.28
2017-11-03T02:15:37.131Z,97645.03
2017-11-03T02:16:14.489Z,97644.17
2017-11-03T02:16:51.878Z,97645.87
2017-11-03T02:17:29.177Z,97646.30
2017-11-03T02:18:06.549Z,97648.39
2017-11-03T02:18:43.980Z,97645.80
2017-11-03T02:19:21.373Z,97646.23
2017-11-03T02:19:58.693Z,97646.65
2017-11-03T02:20:36.016Z,97649.62
2017-11-03T02:21:13.318Z,97640.70
2017-11-03T02:21:50.769Z,97641.64
2017-11-03T02:22:28.061Z,97637.73
2017-11-03T02:23:05.486Z,97648.78
2017-11-03T02:23:42.733Z,97649.58
2017-11-03T02:24:20.133Z,97642.41
2017-11-03T02:24:57.408Z,97639.86
2017-11-03T02:25:34.701Z,97648.00
2017-11-03T02:26:12.050Z,97650.56
2017-11-03T02:26:49.273Z,97649.30
2017-11-03T02:27:26.773Z,97648.01
2017-11-03T02:28:04.074Z,97650.16
2017-11-03T02:28:41.518Z,97648.88
2017-11-03T02:29:18.764Z,97659.92
2017-11-03T02:29:56.203Z,97651.01
2017-11-03T02:30:33.462Z,97654.84
2017-11-03T02:31:10.808Z,97654.83
2017-11-03T02:31:48.085Z,97654.84
2017-11-03T02:32:25.458Z,97649.38
2017-11-03T02:33:02.833Z,97658.31
2017-11-03T02:33:40.206Z,97653.29
2017-11-03T02:34:17.425Z,97662.21
2017-11-03T02:34:54.753Z,97659.73
2017-11-03T02:35:32.174Z,97662.71
2017-11-03T02:36:09.445Z,97661.42
2017-11-03T02:36:46.901Z,97661.50
2017-11-03T02:37:24.343Z,97658.95
2017-11-03T02:38:01.564Z,97665.40
2017-11-03T02:38:39.641Z,97666.27
2017-11-03T02:39:16.909Z,97666.20
2017-11-03T02:39:53.651Z,97663.63
2017-11-03T02:40:25.300Z,97657.27
2017-11-03T02:40:57.139Z,97662.37
2017-11-03T02:41:28.883Z,97662.84
2017-11-03T02:42:00.838Z,97667.95
2017-11-03T02:42:32.485Z,97651.58
2017-11-03T02:43:04.125Z,97666.40
2017-11-03T02:43:35.768Z,97660.88
2017-11-03T02:44:07.457Z,97663.84
2017-11-03T02:44:39.097Z,97665.55
2017-11-03T02:45:10.745Z,97660.87
2017-11-03T02:45:42.633Z,97660.87
2017-11-03T02:46:14.582Z,97663.86
2017-11-03T02:46:46.415Z,97657.05
2017-11-03T02:47:18.173Z,97662.08
2017-11-03T02:47:49.813Z,97660.80
2017-11-03T02:48:21.764Z,97663.78
2017-11-03T02:48:53.716Z,97664.63
2017-11-03T02:49:25.559Z,97664.64
2017-11-03T02:49:57.304Z,97661.28
2017-11-03T02:50:29.178Z,97664.27
2017-11-03T02:51:00.817Z,97661.73
2017-11-03T02:51:32.506Z,97661.72
2017-11-03T02:52:04.179Z,97660.92
2017-11-03T02:52:35.829Z,97663.02
2017-11-03T02:53:07.468Z,97663.44
2017-11-03T02:53:39.113Z,97662.59
2017-11-03T02:54:11.053Z,97662.23
2017-11-03T02:54:42.741Z,97667.31
2017-11-03T02:55:14.385Z,97666.84
2017-11-03T02:55:46.034Z,97664.34
2017-11-03T02:56:17.682Z,97668.97
2017-11-03T02:56:49.576Z,97667.32
2017-11-03T02:57:21.220Z,97666.96
2017-11-03T02:57:52.870Z,97671.59
2017-11-03T02:58:24.513Z,97666.05
2017-11-03T02:58:56.192Z,97669.09
2017-11-03T02:59:27.838Z,97663.99
2017-11-03T02:59:59.489Z,97664.86
2017-11-03T03:00:31.324Z,97666.13
2017-11-03T03:01:03.022Z,97663.20
2017-11-03T03:01:34.665Z,97668.67
2017-11-03T03:02:06.305Z,97666.13
2017-11-03T03:02:37.950Z,97667.42
2017-11-03T03:03:09.593Z,97668.75
2017-11-03T03:03:41.238Z,97671.71
2017-11-03T03:04:12.882Z,97667.48
2017-11-03T03:04:44.529Z,97664.55
2017-11-03T03:05:16.168Z,97662.02
2017-11-03T03:05:47.809Z,97666.70
2017-11-03T03:06:19.505Z,97667.12
2017-11-03T03:06:51.149Z,97670.10
2017-11-03T03:07:22.789Z,97664.62
2017-11-03T03:07:54.628Z,97670.11
2017-11-03T03:08:26.305Z,97673.55
2017-11-03T03:08:58.255Z,97664.64
2017-11-03T03:09:29.905Z,97668.89
2017-11-03T03:10:01.546Z,97672.35
2017-11-03T03:10:33.378Z,97676.56
2017-11-03T03:11:05.130Z,97671.08
2017-11-03T03:11:36.817Z,97676.63
2017-11-03T03:12:08.691Z,97671.09
2017-11-03T03:12:40.366Z,97674.08
2017-11-03T03:13:12.013Z,97673.66
2017-11-03T03:13:43.672Z,97668.13
2017-11-03T03:14:15.317Z,97673.70
2017-11-03T03:14:46.961Z,97669.47
2017-11-03T03:15:18.610Z,97668.20
2017-11-03T03:15:50.257Z,97670.38
2017-11-03T03:16:21.904Z,97672.92
2017-11-03T03:16:53.752Z,97677.19
2017-11-03T03:17:25.398Z,97677.63
2017-11-03T03:17:57.273Z,97676.81
2017-11-03T03:18:29.038Z,97674.63
2017-11-03T03:19:00.989Z,97672.08
2017-11-03T03:19:32.641Z,97672.56
2017-11-03T03:20:04.290Z,97666.14
2017-11-03T03:20:35.934Z,97670.88
2017-11-03T03:21:07.758Z,97678.97
2017-11-03T03:21:39.505Z,97674.28
2017-11-03T03:22:11.153Z,97679.39
2017-11-03T03:22:43.077Z,97667.12
2017-11-03T03:23:14.936Z,97670.88
2017-11-03T03:23:46.689Z,97675.13
2017-11-03T03:24:18.339Z,97672.56
2017-11-03T03:24:49.987Z,97669.59
2017-11-03T03:25:21.634Z,97679.82
2017-11-03T03:25:53.281Z,97679.80
2017-11-03T03:26:24.929Z,97681.00
2017-11-03T03:26:56.570Z,97672.98
2017-11-03T03:27:28.214Z,97677.13
2017-11-03T03:27:59.853Z,97678.80
2017-11-03T03:28:31.497Z,97678.75
2017-11-03T03:29:03.137Z,97682.14
2017-11-03T03:29:34.782Z,97676.98
2017-11-03T03:30:06.697Z,97675.70
2017-11-03T03:30:38.309Z,97670.18
2017-11-03T03:31:09.980Z,97679.88
2017-11-03T03:31:41.807Z,97678.96
2017-11-03T03:32:13.678Z,97673.42
2017-11-03T03:32:45.321Z,97678.96
2017-11-03T03:33:16.969Z,97678.52
2017-11-03T03:33:48.804Z,97675.56
2017-11-03T03:34:20.650Z,97668.38
2017-11-03T03:34:52.395Z,97670.03
2017-11-03T03:35:24.082Z,97671.78
2017-11-03T03:35:55.733Z,97676.83
2017-11-03T03:36:27.378Z,97672.09
2017-11-03T03:36:59.161Z,97669.97
2017-11-03T03:37:30.911Z,97673.30
2017-11-03T03:38:02.862Z,97674.98
2017-11-03T03:38:34.509Z,97672.77
2017-11-03T03:39:06.198Z,97671.08
2017-11-03T03:39:37.849Z,97674.05
2017-11-03T03:40:09.498Z,97672.78
2017-11-03T03:40:41.145Z,97680.44
2017-11-03T03:41:13.019Z,97675.32
2017-11-03T03:41:44.983Z,97677.81
2017-11-03T03:42:16.681Z,97678.67
2017-11-03T03:42:48.321Z,97680.78
2017-11-03T03:43:19.969Z,97682.88
2017-11-03T03:43:51.844Z,97679.50
2017-11-03T03:44:23.497Z,97679.05
2017-11-03T03:44:55.141Z,97682.49
2017-11-03T03:45:26.789Z,97684.57
2017-11-03T03:45:58.481Z,97677.82
2017-11-03T03:46:30.361Z,97680.30
2017-11-03T03:47:02.017Z,97685.41
2017-11-03T03:47:33.666Z,97684.13
2017-11-03T03:48:05.309Z,97681.07
2017-11-03T03:48:36.981Z,97679.78
2017-11-03T03:49:08.626Z,97679.30
2017-11-03T03:49:40.273Z,97685.25
2017-11-03T03:50:12.154Z,97682.28
2017-11-03T03:50:44.110Z,97687.31
2017-11-03T03:51:15.800Z,97683.41
2017-11-03T03:51:47.450Z,97683.40
2017-11-03T03:52:19.094Z,97687.17
2017-11-03T03:52:50.737Z,97679.50
2017-11-03T03:53:22.381Z,97690.98
2017-11-03T03:53:54.221Z,97685.41
2017-11-03T03:54:26.112Z,97688.51
2017-11-03T03:54:57.766Z,97685.61
2017-11-03T03:55:29.409Z,97686.48
2017-11-03T03:56:01.057Z,97691.55
2017-11-03T03:56:32.697Z,97688.59
2017-11-03T03:57:04.432Z,97688.53
2017-11-03T03:57:36.079Z,97690.94
2017-11-03T03:58:07.729Z,97689.30
2017-11-03T03:58:39.373Z,97689.72
2017-11-03T03:59:11.014Z,97689.38
2017-11-03T03:59:42.876Z,97692.34
2017-11-03T04:00:14.518Z,97692.41
2017-11-03T04:00:46.165Z,97691.94
2017-11-03T04:01:17.805Z,97688.16
2017-11-03T04:01:49.450Z,97696.94
2017-11-03T04:02:21.097Z,97699.45
2017-11-03T04:02:52.750Z,97694.81
2017-11-03T04:03:24.405Z,97695.23
2017-11-03T04:03:56.079Z,97697.82
2017-11-03T04:04:27.962Z,97696.61
2017-11-03T04:04:59.671Z,97700.88
2017-11-03T04:05:31.315Z,97701.72
2017-11-03T04:06:03.001Z,97700.48
2017-11-03T04:06:34.645Z,97703.91
2017-11-03T04:07:06.294Z,97705.97
2017-11-03T04:07:37.941Z,97698.32
2017-11-03T04:08:09.829Z,97701.77
2017-11-03T04:08:41.478Z,97706.03
2017-11-03T04:09:13.125Z,97710.30
2017-11-03T04:09:45.788Z,97699.66
2017-11-03T04:10:17.440Z,97702.20
2017-11-03T04:10:49.273Z,97706.02
2017-11-03T04:11:21.108Z,97704.26
2017-11-03T04:11:52.859Z,97702.49
2017-11-03T04:12:24.509Z,97701.65
2017-11-03T04:12:56.158Z,97703.84
2017-11-03T04:13:27.801Z,97699.23
2017-11-03T04:13:59.445Z,97703.91
2017-11-03T04:14:31.085Z,97699.66
2017-11-03T04:15:02.734Z,97687.59
2017-11-03T04:15:34.378Z,97700.16
2017-11-03T04:16:06.065Z,97702.72
2017-11-03T04:16:37.713Z,97700.16
2017-11-03T04:17:09.553Z,97700.16
2017-11-03T04:17:41.225Z,97700.58
2017-11-03T04:18:12.873Z,97700.56
2017-11-03T04:18:44.526Z,97700.16
2017-11-03T04:19:16.173Z,97701.02
2017-11-03T04:19:47.814Z,97705.75
2017-11-03T04:20:19.464Z,97702.34
2017-11-03T04:20:51.342Z,97699.85
2017-11-03T04:21:23.027Z,97694.36
2017-11-03T04:21:54.975Z,97707.52
2017-11-03T04:22:26.859Z,97698.58
2017-11-03T04:22:58.501Z,97708.32
2017-11-03T04:23:30.142Z,97702.78
2017-11-03T04:24:01.798Z,97704.55
2017-11-03T04:24:33.445Z,97702.36
2017-11-03T04:25:05.326Z,97703.26
2017-11-03T04:25:37.083Z,97702.49
2017-11-03T04:26:09.032Z,97702.08
2017-11-03T04:26:40.678Z,97702.13
2017-11-03T04:27:12.321Z,97700.45
2017-11-03T04:27:43.966Z,97703.42
2017-11-03T04:28:15.908Z,97701.72
2017-11-03T04:28:47.557Z,97699.23
2017-11-03T04:29:19.202Z,97700.07
2017-11-03T04:29:50.841Z,97694.97
2017-11-03T04:30:22.485Z,97693.72
2017-11-03T04:30:54.146Z,97695.89
2017-11-03T04:31:25.797Z,97697.11
2017-11-03T04:31:57.445Z,97703.08
2017-11-03T04:32:29.089Z,97694.20
2017-11-03T04:33:00.742Z,97697.66
2017-11-03T04:33:32.626Z,97698.52
2017-11-03T04:34:04.583Z,97698.87
2017-11-03T04:34:36.278Z,97692.93
2017-11-03T04:35:07.925Z,97693.83
2017-11-03T04:35:39.567Z,97696.39
2017-11-03T04:36:11.210Z,97693.83
2017-11-03T04:36:42.854Z,97695.54
2017-11-03T04:37:14.691Z,97690.02
2017-11-03T04:37:46.338Z,97696.39
2017-11-03T04:38:18.026Z,97695.55
2017-11-03T04:38:49.673Z,97703.64
2017-11-03T04:39:21.318Z,97702.77
2017-11-03T04:39:53.005Z,97696.47
2017-11-03T04:40:24.646Z,97699.44
2017-11-03T04:40:56.289Z,97702.84
2017-11-03T04:41:27.934Z,97702.84
2017-11-03T04:41:59.577Z,97701.16
2017-11-03T04:42:31.222Z,97703.75
2017-11-03T04:43:02.921Z,97702.91
2017-11-03T04:43:34.564Z,97705.03
2017-11-03T04:44:06.281Z,97706.74
2017-11-03T04:44:38.036Z,97706.34
2017-11-03T04:45:09.984Z,97706.34
2017-11-03T04:45:41.866Z,97703.83
2017-11-03T04:46:13.586Z,97704.31
2017-11-03T04:46:45.234Z,97706.81
2017-11-03T04:47:16.878Z,97704.70
2017-11-03T04:47:48.521Z,97707.26
2017-11-03T04:48:20.205Z,97708.95
2017-11-03T04:48:51.846Z,97707.67
2017-11-03T04:49:23.493Z,97697.46
2017-11-03T04:49:55.329Z,97703.42
2017-11-03T04:50:26.977Z,97708.14
2017-11-03T04:50:58.660Z,97704.31
2017-11-03T04:51:30.524Z,97704.31
2017-11-03T04:52:02.205Z,97702.62
2017-11-03T04:52:33.892Z,97706.45
2017-11-03T04:53:05.542Z,97704.75
2017-11-03T04:53:37.233Z,97705.18
2017-11-03T04:54:08.874Z,97703.92
2017-11-03T04:54:40.517Z,97708.64
2017-11-03T04:55:12.161Z,97705.24
2017-11-03T04:55:43.809Z,97707.36
2017-11-03T04:56:15.499Z,97699.24
2017-11-03T04:56:47.146Z,97703.07
2017-11-03T04:57:18.790Z,97702.26
2017-11-03T04:57:50.438Z,97702.26
2017-11-03T04:58:22.089Z,97702.65
2017-11-03T04:58:53.737Z,97703.07
2017-11-03T04:59:25.377Z,97702.22
2017-11-03T04:59:57.021Z,97703.05
2017-11-03T05:00:28.661Z,97697.95
2017-11-03T05:01:00.470Z,97701.34
2017-11-03T05:01:32.126Z,97701.77
2017-11-03T05:02:03.769Z,97701.28
2017-11-03T05:02:35.411Z,97697.45
2017-11-03T05:03:07.053Z,97705.89
2017-11-03T05:03:38.697Z,97706.33
2017-11-03T05:04:10.340Z,97709.73
2017-11-03T05:04:41.981Z,97705.91
2017-11-03T05:05:13.629Z,97705.97
2017-11-03T05:05:45.322Z,97704.70
2017-11-03T05:06:17.196Z,97703.04
2017-11-03T05:06:49.030Z,97702.62
2017-11-03T05:07:20.787Z,97707.73
2017-11-03T05:07:52.736Z,97704.33
2017-11-03T05:08:24.385Z,97704.34
2017-11-03T05:08:56.030Z,97711.56
2017-11-03T05:09:27.726Z,97704.76
2017-11-03T05:09:59.610Z,97706.90
2017-11-03T05:10:31.262Z,97704.83
2017-11-03T05:11:02.911Z,97708.22
2017-11-03T05:11:34.554Z,97705.25
2017-11-03T05:12:06.198Z,97709.49
2017-11-03T05:12:37.842Z,97703.98
2017-11-03T05:13:09.485Z,97709.08
2017-11-03T05:13:41.125Z,97707.38
2017-11-03T05:14:12.765Z,97706.11
2017-11-03T05:14:44.413Z,97705.69
2017-11-03T05:15:16.054Z,97706.54
2017-11-03T05:15:47.704Z,97705.27
2017-11-03T05:16:19.345Z,97703.06
2017-11-03T05:16:50.985Z,97707.30
2017-11-03T05:17:22.635Z,97710.28
2017-11-03T05:17:54.438Z,97703.85
2017-11-03T05:18:26.189Z,97704.70
2017-11-03T05:18:57.837Z,97708.50
2017-11-03T05:19:29.530Z,97702.91
2017-11-03T05:20:01.226Z,97710.14
2017-11-03T05:20:32.918Z,97700.30
2017-11-03T05:21:04.569Z,97708.31
2017-11-03T05:21:36.348Z,97709.58
2017-11-03T05:22:07.997Z,97707.05
2017-11-03T05:22:39.645Z,97705.70
2017-11-03T05:23:11.294Z,97707.41
2017-11-03T05:23:42.937Z,97714.19
2017-11-03T05:24:14.581Z,97710.31
2017-11-03T05:24:46.225Z,97708.09
2017-11-03T05:25:17.870Z,97708.88
2017-11-03T05:25:49.557Z,97710.43
2017-11-03T05:26:21.398Z,97717.18
2017-11-03T05:26:53.073Z,97709.08
2017-11-03T05:27:24.969Z,97710.37
2017-11-03T05:27:56.625Z,97706.53
2017-11-03T05:28:28.307Z,97714.12
2017-11-03T05:29:00.189Z,97714.06
2017-11-03T05:29:32.167Z,97716.09
2017-11-03T05:30:03.848Z,97719.87
2017-11-03T05:30:35.497Z,97720.20
2017-11-03T05:31:07.149Z,97718.08
2017-11-03T05:31:38.798Z,97717.25
2017-11-03T05:32:10.441Z,97723.56
2017-11-03T05:32:42.089Z,97720.16
2017-11-03T05:33:13.733Z,97720.15
2017-11-03T05:33:45.374Z,97722.25
2017-11-03T05:34:17.021Z,97721.77
2017-11-03T05:34:48.898Z,97725.59
2017-11-03T05:35:20.590Z,97720.86
2017-11-03T05:35:52.233Z,97722.13
2017-11-03T05:36:24.054Z,97722.59
2017-11-03T05:36:55.742Z,97723.00
2017-11-03T05:37:27.390Z,97724.69
2017-11-03T05:37:59.034Z,97722.92
2017-11-03T05:38:30.693Z,97723.35
2017-11-03T05:39:02.374Z,97726.75
2017-11-03T05:39:34.322Z,97725.34
2017-11-03T05:40:06.157Z,97726.61
2017-11-03T05:40:37.914Z,97727.40
2017-11-03T05:41:09.862Z,97728.67
2017-11-03T05:41:41.811Z,97730.86
2017-11-03T05:42:13.498Z,97730.02
2017-11-03T05:42:45.145Z,97731.31
2017-11-03T05:43:16.794Z,97735.55
2017-11-03T05:43:48.438Z,97734.27
2017-11-03T05:44:20.081Z,97735.92
2017-11-03T05:44:51.725Z,97733.72
2017-11-03T05:45:23.567Z,97735.54
2017-11-03T05:45:55.214Z,97736.89
2017-11-03T05:46:26.868Z,97733.91
2017-11-03T05:46:58.575Z,97736.97
2017-11-03T05:47:30.222Z,97734.45
2017-11-03T05:48:01.866Z,97738.66
2017-11-03T05:48:33.513Z,97737.82
2017-11-03T05:49:05.162Z,97737.34
2017-11-03T05:49:36.955Z,97733.48
2017-11-03T05:50:08.606Z,97739.89
2017-11-03T05:50:40.250Z,97734.02
2017-11-03T05:51:11.894Z,97736.55
2017-11-03T05:51:43.541Z,97737.82
2017-11-03T05:52:15.229Z,97740.81
2017-11-03T05:52:46.877Z,97741.31
2017-11-03T05:53:18.526Z,97739.66
2017-11-03T05:53:50.190Z,97741.78
2017-11-03T05:54:22.139Z,97744.41
2017-11-03T05:54:54.088Z,97738.93
2017-11-03T05:55:25.738Z,97741.93
2017-11-03T05:55:57.389Z,97743.25
2017-11-03T05:56:29.030Z,97739.44
2017-11-03T05:57:00.673Z,97749.66
2017-11-03T05:57:32.358Z,97744.56
2017-11-03T05:58:04.246Z,97747.52
2017-11-03T05:58:36.128Z,97746.69
2017-11-03T05:59:07.773Z,97749.28
2017-11-03T05:59:39.414Z,97751.85
2017-11-03T06:00:11.056Z,97747.66
2017-11-03T06:00:42.698Z,97752.30
2017-11-03T06:01:14.347Z,97747.66
2017-11-03T06:01:46.002Z,97754.91
2017-11-03T06:02:17.649Z,97753.64
2017-11-03T06:02:49.357Z,97757.52
2017-11-03T06:03:21.002Z,97757.52
2017-11-03T06:03:52.645Z,97759.23
2017-11-03T06:04:24.455Z,97753.26
2017-11-03T06:04:56.205Z,97760.08
2017-11-03T06:05:28.108Z,97755.41
2017-11-03T06:05:59.796Z,97762.20
2017-11-03T06:06:31.746Z,97762.56
2017-11-03T06:07:03.694Z,97762.58
2017-11-03T06:07:35.644Z,97766.05
2017-11-03T06:08:07.525Z,97761.77
2017-11-03T06:08:39.173Z,97763.47
2017-11-03T06:09:10.814Z,97767.75
2017-11-03T06:09:42.461Z,97768.66
2017-11-03T06:10:14.102Z,97771.62
2017-11-03T06:10:45.758Z,97768.72
2017-11-03T06:11:17.405Z,97770.80
2017-11-03T06:11:49.086Z,97766.55
2017-11-03T06:12:20.737Z,97768.24
2017-11-03T06:12:52.381Z,97772.98
2017-11-03T06:13:24.069Z,97771.69
2017-11-03T06:13:55.722Z,97769.15
2017-11-03T06:14:27.494Z,97781.86
2017-11-03T06:14:59.444Z,97775.05
2017-11-03T06:15:31.193Z,97778.88
2017-11-03T06:16:03.077Z,97772.98
2017-11-03T06:16:34.784Z,97769.59
2017-11-03T06:17:06.442Z,97774.32
2017-11-03T06:17:38.100Z,97776.81
2017-11-03T06:18:09.742Z,97776.39
2017-11-03T06:18:41.385Z,97778.52
2017-11-03T06:19:13.029Z,97774.74
2017-11-03T06:19:44.672Z,97772.19
2017-11-03T06:20:16.313Z,97775.16
2017-11-03T06:20:47.978Z,97773.89
2017-11-03T06:21:19.978Z,97779.38
2017-11-03T06:21:51.666Z,97778.16
2017-11-03T06:22:23.310Z,97782.42
2017-11-03T06:22:55.013Z,97776.94
2017-11-03T06:23:26.655Z,97776.55
2017-11-03T06:23:58.305Z,97779.99
2017-11-03T06:24:29.950Z,97774.45
2017-11-03T06:25:01.598Z,97779.98
2017-11-03T06:25:33.238Z,97783.39
2017-11-03T06:26:04.884Z,97784.24
2017-11-03T06:26:36.534Z,97781.70
2017-11-03T06:27:08.182Z,97785.11
2017-11-03T06:27:39.833Z,97779.99
2017-11-03T06:28:11.717Z,97786.80
2017-11-03T06:28:43.470Z,97787.67
2017-11-03T06:29:15.157Z,97784.30
2017-11-03T06:29:46.801Z,97793.67
2017-11-03T06:30:18.445Z,97788.56
2017-11-03T06:30:50.098Z,97789.84
2017-11-03T06:31:21.743Z,97788.16
2017-11-03T06:31:53.434Z,97786.08
2017-11-03T06:32:25.081Z,97792.47
2017-11-03T06:32:56.730Z,97790.34
2017-11-03T06:33:28.377Z,97791.63
2017-11-03T06:34:00.020Z,97786.16
2017-11-03T06:34:31.749Z,97792.55
2017-11-03T06:35:03.682Z,97798.97
2017-11-03T06:35:35.334Z,97795.16
2017-11-03T06:36:06.981Z,97795.58
2017-11-03T06:36:38.625Z,97799.00
2017-11-03T06:37:10.309Z,97800.31
2017-11-03T06:37:41.957Z,97798.20
2017-11-03T06:38:13.613Z,97803.31
2017-11-03T06:38:45.281Z,97808.03